Weather at Hakodate Airport

Public forecast

Using degrees Celsius for public forecast. Weather courtesy of forecast.io.

Current aviation weather report (METAR) for Hakodate Airport

2022/11/30 11:12 (retrieved 33 minutes ago)

RJCH 301112Z 28012KT 3100 -SHSN FEW010 SCT018 BKN030 M02/M06 Q1016 RMK 1ST010 3ST018 5CU030 A3002

Aviation forecast (TAF) for Hakodate Airport

2022/11/30 06:30 (retrieved 5 hours ago)

TAF RJCH 300511Z 3006/0112 29018KT 9999 FEW008 BKN015 TEMPO 3006/3015 29020G30KT 3000 -SHSN FEW005 BKN008 TEMPO 3015/0100 1500 -SHSN FEW004 BKN006 TEMPO 0100/0106 28020G30KT 2000 -SHSN FEW005 BKN008 TEMPO 0106/0112 2000 -SHSN FEW005 BKN008